Angelus Oaks, California
Current Conditions -  °F | °C
As of 8:55 AM on Sunday 23 Nov 2014 (Local Time) from KL35 Reporting Station
Clear Clear  
Wind Chill:   Ceiling: Unl
Heat Index:   Visibility: 10mi
Dew Point: -13°   Wind: 12mph
Humidity: 28%   Direction: 70°ENE
Pressure: 30.34"   Gusts: 23mph
Location:  34.15°N, 116.98°W
Report Text: KL35 231655Z AUTO 07010G20KT 10SM CLR 04/M13 A3034 RMK AO2
Loading
Personal Weather Stations






























Interactive Weather Map New forecast layout! Learn more

10-Day Weather Forecast

Advertisements
Track Severe Weather on mobile